Easton, Ohio
Current Conditions -  °F | °C
As of 10:54 AM on Monday 24 Nov 2014 (Local Time) from KAKR Reporting Station
Light Rain Light Rain  
Wind Chill: 61°   Ceiling: 4700
Heat Index: 61°   Visibility: 8mi
Dew Point: 52°   Wind: 20mph
Humidity: 72%   Direction: 210°SSW
Pressure: 29.3"   Gusts: 32mph
Location:  40.9626°N, 81.7765°W
Report Text: KAKR 241554Z AUTO 21017G28KT 8SM -RA SCT039 BKN047 OVC085 16/11 A2930 RMK AO2 PK WND 21035/1521 RAB37 SLP919 P0005 T01610111
Loading
Personal Weather Stations






























Interactive Weather Map New forecast layout! Learn more

10-Day Weather Forecast

Advertisements
Track Severe Weather on mobile